Time;durP1;ratioP1;P1;durP2;ratioP2;P2;SDS_P1;SDS_P2;PMS_P1;PMS_P2;Temp;Humidity;BMP_temperature;BMP_pressure;BME280_temperature;BME280_humidity;BME280_pressure;Samples;Min_cycle;Max_cycle;Signal;HPM_P1;HPM_P2
2023/10/01 00:00:26;;;;;;;0.40;0.40;;;;;;;20.27;38.60;101423.53;5034436;28;20384;-79
2023/10/01 00:02:53;;;;;;;0.50;0.50;;;;;;;20.25;38.64;101431.81;5051819;28;20910;-80
2023/10/01 00:05:24;;;;;;;0.30;0.30;;;;;;;20.21;38.89;101433.31;5033925;28;20401;-81
2023/10/01 00:07:51;;;;;;;0.68;0.68;;;;;;;20.24;38.83;101432.88;5051316;28;20384;-81
2023/10/01 00:10:19;;;;;;;0.43;0.43;;;;;;;20.22;38.98;101432.28;5051583;28;20385;-79
2023/10/01 00:12:47;;;;;;;0.55;0.52;;;;;;;20.22;39.04;101429.59;5050928;28;20400;-81
2023/10/01 00:15:21;;;;;;;0.45;0.45;;;;;;;20.24;39.00;101435.56;5050632;28;20388;-80
2023/10/01 00:17:48;;;;;;;0.40;0.40;;;;;;;20.23;39.05;101427.72;5051706;28;20403;-79
2023/10/01 00:20:23;;;;;;;0.40;0.40;;;;;;;20.25;38.99;101434.50;5051743;28;20486;-79
2023/10/01 00:23:02;;;;;;;0.40;0.30;;;;;;;20.27;38.94;101434.28;5051507;28;20859;-81
2023/10/01 00:25:28;;;;;;;0.40;0.40;;;;;;;20.24;38.96;101424.78;5018580;28;20432;-82
2023/10/01 00:27:54;;;;;;;0.20;0.20;;;;;;;20.18;39.17;101422.97;5034504;28;20428;-81
2023/10/01 00:30:23;;;;;;;0.30;0.30;;;;;;;20.22;38.93;101418.81;5034412;28;20759;-82
2023/10/01 00:32:50;;;;;;;0.27;0.27;;;;;;;20.23;38.94;101419.63;5051331;28;20481;-82
2023/10/01 00:35:16;;;;;;;0.38;0.38;;;;;;;20.20;39.05;101422.75;5032752;28;20380;-81
2023/10/01 00:37:44;;;;;;;0.40;0.30;;;;;;;20.23;38.97;101430.41;5050377;28;20408;-79
2023/10/01 00:40:14;;;;;;;0.33;0.33;;;;;;;20.16;39.06;101422.34;5028018;28;20406;-80
2023/10/01 00:42:40;;;;;;;0.22;0.22;;;;;;;20.18;38.94;101414.06;5011489;28;20928;-79
2023/10/01 00:45:11;;;;;;;1.02;0.82;;;;;;;20.15;39.22;101426.09;5027944;28;20418;-82
2023/10/01 00:47:40;;;;;;;2.80;0.70;;;;;;;20.11;39.12;101416.78;5012435;28;20394;-80
2023/10/01 00:50:15;;;;;;;0.25;0.25;;;;;;;20.14;39.07;101419.06;5028370;28;20445;-81
2023/10/01 00:52:44;;;;;;;0.32;0.32;;;;;;;20.14;39.13;101420.94;5028445;28;20957;-83
2023/10/01 00:55:13;;;;;;;0.40;0.40;;;;;;;20.15;39.12;101418.03;5027898;28;20489;-81
2023/10/01 00:57:44;;;;;;;0.45;0.45;;;;;;;20.12;39.02;101415.75;5028583;28;20395;-80
2023/10/01 01:00:15;;;;;;;0.32;0.25;;;;;;;20.12;39.06;101425.72;5028409;28;20393;-80
2023/10/01 01:03:05;;;;;;;0.50;0.40;;;;;;;20.06;39.18;101411.25;5028922;28;20378;-82
2023/10/01 01:05:57;;;;;;;0.40;0.40;;;;;;;20.09;39.20;101418.06;5028466;28;20386;-81
2023/10/01 01:08:33;;;;;;;0.90;0.85;;;;;;;20.02;39.33;101415.41;5028487;28;20754;-80
2023/10/01 01:11:15;;;;;;;0.40;0.30;;;;;;;19.97;39.37;101417.91;5025421;28;20425;-79
2023/10/01 01:13:43;;;;;;;0.20;0.20;;;;;;;19.95;39.47;101420.00;5034559;28;20405;-80
2023/10/01 01:16:13;;;;;;;0.20;0.20;;;;;;;19.94;39.45;101418.34;5051582;28;20923;-81
2023/10/01 01:18:44;;;;;;;0.70;0.70;;;;;;;19.89;39.47;101412.78;5015241;28;20404;-81
2023/10/01 01:21:10;;;;;;;0.30;0.30;;;;;;;19.94;39.61;101410.28;5049205;28;20538;-80
2023/10/01 01:23:41;;;;;;;0.50;0.50;;;;;;;19.97;39.43;101408.00;5050540;28;20381;-80
2023/10/01 01:26:11;;;;;;;0.40;0.40;;;;;;;19.94;39.46;101410.28;5050273;28;20747;-80
2023/10/01 01:28:38;;;;;;;1.58;0.60;;;;;;;19.90;39.53;101409.03;5032606;28;20381;-79
2023/10/01 01:31:08;;;;;;;0.50;0.50;;;;;;;19.78;39.92;101406.22;5050268;28;20498;-79
2023/10/01 01:33:56;;;;;;;0.68;0.43;;;;;;;19.71;39.97;101416.16;5048809;28;20412;-78
2023/10/01 01:36:22;;;;;;;0.73;0.52;;;;;;;19.65;40.22;101418.66;5051597;28;20808;-79
2023/10/01 01:39:12;;;;;;;0.25;0.25;;;;;;;19.63;40.10;101420.72;5057531;28;20412;-79
2023/10/01 01:41:47;;;;;;;0.50;0.50;;;;;;;19.55;40.42;101412.06;5032819;28;20419;-80
2023/10/01 01:44:23;;;;;;;0.50;0.50;;;;;;;19.53;40.60;101414.97;5050798;28;20384;-80
2023/10/01 01:46:49;;;;;;;0.35;0.35;;;;;;;19.54;40.67;101418.50;5049453;28;20395;-81
2023/10/01 01:49:19;;;;;;;0.40;0.40;;;;;;;19.46;40.94;101415.00;5050556;28;20377;-78
2023/10/01 01:52:00;;;;;;;0.30;0.30;;;;;;;19.32;41.31;101408.03;5032319;28;20771;-80
2023/10/01 01:54:38;;;;;;;0.40;0.40;;;;;;;19.34;41.26;101421.22;5047901;28;20395;-82
2023/10/01 01:57:14;;;;;;;0.40;0.40;;;;;;;19.29;41.27;101419.19;5032260;28;20385;-80
2023/10/01 01:59:41;;;;;;;0.80;0.60;;;;;;;19.25;41.28;101415.28;5055347;28;20392;-80
2023/10/01 02:02:14;;;;;;;0.35;0.35;;;;;;;19.22;41.41;101410.31;5051354;28;20391;-78
2023/10/01 02:05:09;;;;;;;0.45;0.45;;;;;;;19.20;41.66;101413.19;5030832;28;20531;-80
2023/10/01 02:07:33;;;;;;;0.30;0.30;;;;;;;19.25;41.25;101412.59;5048813;28;20491;-80
2023/10/01 02:09:59;;;;;;;0.45;0.45;;;;;;;19.26;41.42;101411.53;5049057;28;20736;-79
2023/10/01 02:12:27;;;;;;;0.20;0.20;;;;;;;19.39;41.41;101416.91;5032177;28;20644;-77
2023/10/01 02:14:57;;;;;;;0.47;0.47;;;;;;;19.37;41.59;101413.56;5032406;28;20468;-79
2023/10/01 02:17:25;;;;;;;0.20;0.20;;;;;;;19.36;41.39;101421.88;5031907;28;20393;-79
2023/10/01 02:19:51;;;;;;;0.40;0.40;;;;;;;19.31;41.57;101419.78;5032211;28;20380;-78
2023/10/01 02:22:17;;;;;;;0.32;0.32;;;;;;;19.29;41.58;101417.31;5032179;28;20782;-77
2023/10/01 02:24:54;;;;;;;0.27;0.27;;;;;;;19.26;41.35;101412.34;5032057;28;20442;-78
2023/10/01 02:27:20;;;;;;;0.30;0.30;;;;;;;19.32;41.25;101404.47;5032619;28;20392;-79
2023/10/01 02:32:35;;;;;;;0.20;0.20;;;;;;;19.36;41.26;101409.25;5049600;28;20431;-79
2023/10/01 02:35:33;;;;;;;0.30;0.30;;;;;;;19.27;41.29;101407.81;5049431;28;20376;-79
2023/10/01 02:37:48;;;;;;;0.20;0.20;;;;;;;19.18;41.67;101417.16;5048891;28;20919;-79
2023/10/01 02:40:21;;;;;;;0.40;0.40;;;;;;;18.98;42.38;101426.06;5049657;28;20376;-83
2023/10/01 02:43:12;;;;;;;0.77;0.70;;;;;;;18.92;42.58;101421.50;5047366;28;20497;-83
2023/10/01 02:45:41;;;;;;;0.40;0.40;;;;;;;18.98;42.33;101423.38;5031743;28;20424;-82
2023/10/01 02:48:13;;;;;;;0.30;0.30;;;;;;;19.04;41.98;101427.91;5049254;28;20740;-82
2023/10/01 02:50:45;;;;;;;0.40;0.40;;;;;;;18.84;42.87;101422.56;5049371;28;20812;-82
2023/10/01 02:53:14;;;;;;;0.43;0.43;;;;;;;18.89;42.71;101417.38;5047720;28;20451;-81
2023/10/01 02:55:46;;;;;;;0.50;0.50;;;;;;;18.99;42.34;101413.44;5049510;28;20387;-80
2023/10/01 02:58:19;;;;;;;0.50;0.50;;;;;;;19.05;42.33;101420.66;5049648;28;20399;-82
2023/10/01 03:00:47;;;;;;;0.30;0.30;;;;;;;19.05;42.42;101426.88;5048405;28;20458;-80
2023/10/01 03:03:17;;;;;;;0.35;0.35;;;;;;;19.00;42.42;101429.38;5049451;28;20434;-81
2023/10/01 03:05:45;;;;;;;0.20;0.20;;;;;;;19.01;42.33;101425.63;5049623;28;20389;-81
2023/10/01 03:08:41;;;;;;;0.20;0.20;;;;;;;18.93;42.78;101433.09;5048327;28;20434;-82
2023/10/01 03:11:11;;;;;;;0.37;0.37;;;;;;;18.82;42.90;101432.69;5031546;28;20422;-80
2023/10/01 03:13:38;;;;;;;0.50;0.30;;;;;;;18.79;43.09;101440.28;5034577;28;20428;-80
2023/10/01 03:17:07;;;;;;;0.20;0.20;;;;;;;18.65;43.51;101442.97;5048805;28;20449;-81
2023/10/01 03:19:18;;;;;;;0.70;0.60;;;;;;;18.50;44.11;101435.09;5038226;28;20805;-79
2023/10/01 03:24:29;;;;;;;0.30;0.30;;;;;;;18.33;44.77;101449.97;5053747;28;20434;-81
2023/10/01 03:26:57;;;;;;;0.30;0.30;;;;;;;18.36;44.72;101443.34;5052731;28;20380;-80
2023/10/01 03:29:34;;;;;;;0.20;0.20;;;;;;;18.42;44.55;101447.88;5035324;28;20380;-81
2023/10/01 03:32:26;;;;;;;0.30;0.30;;;;;;;18.25;44.94;101447.47;5052581;28;20472;-80
2023/10/01 03:34:53;;;;;;;0.60;0.60;;;;;;;18.24;45.17;101443.09;5052939;28;20396;-81
2023/10/01 03:37:28;;;;;;;1.15;0.75;;;;;;;18.18;45.52;101454.66;5052334;28;20380;-81
2023/10/01 03:40:09;;;;;;;0.20;0.20;;;;;;;18.20;45.56;101450.75;5036208;28;20475;-83
2023/10/01 03:42:37;;;;;;;0.67;0.63;;;;;;;18.25;45.33;101442.09;5052627;28;20388;-80
2023/10/01 03:47:41;;;;;;;0.30;0.30;;;;;;;18.35;45.09;101447.91;5035325;28;20401;-81
2023/10/01 03:50:09;;;;;;;0.22;0.22;;;;;;;18.30;45.33;101447.69;5051328;28;20421;-81
2023/10/01 03:52:49;;;;;;;0.15;0.15;;;;;;;18.39;45.14;101449.13;5034921;28;20423;-83
2023/10/01 03:55:32;;;;;;;0.40;0.40;;;;;;;18.38;45.06;101447.47;5060826;28;20389;-80
2023/10/01 04:00:32;;;;;;;0.60;0.60;;;;;;;18.41;45.43;101455.13;5052253;28;20491;-81
2023/10/01 04:02:58;;;;;;;0.50;0.50;;;;;;;18.36;45.89;101454.91;5051590;28;20391;-80
2023/10/01 04:05:30;;;;;;;0.30;0.30;;;;;;;18.40;45.86;101456.19;5050776;28;20373;-80
2023/10/01 04:08:11;;;;;;;0.20;0.20;;;;;;;18.51;45.45;101452.03;5050556;28;20679;-81
2023/10/01 04:10:51;;;;;;;0.30;0.30;;;;;;;18.52;45.53;101454.53;5048297;28;20396;-81
2023/10/01 04:13:24;;;;;;;0.80;0.40;;;;;;;18.48;45.91;101461.34;5050499;28;20907;-82
2023/10/01 04:15:56;;;;;;;0.20;0.20;;;;;;;18.52;45.99;101469.81;5054149;28;20389;-80
2023/10/01 04:18:23;;;;;;;0.28;0.28;;;;;;;18.48;46.46;101468.56;5055270;28;20508;-80
2023/10/01 04:23:32;;;;;;;0.40;0.40;;;;;;;18.47;47.21;101472.28;5052278;28;20469;-82
2023/10/01 04:26:13;;;;;;;0.30;0.30;;;;;;;18.57;46.63;101453.09;5052609;28;20447;-83
2023/10/01 04:28:44;;;;;;;0.20;0.20;;;;;;;18.62;46.44;101458.66;5052195;28;20485;-82
2023/10/01 04:31:14;;;;;;;3.30;0.90;;;;;;;18.69;46.70;101467.53;5033924;28;20807;-81
2023/10/01 04:33:50;;;;;;;0.45;0.45;;;;;;;18.69;46.99;101468.41;5052243;28;20404;-80
2023/10/01 04:36:19;;;;;;;0.70;0.70;;;;;;;18.66;47.38;101471.47;5034246;28;20471;-80
2023/10/01 04:38:48;;;;;;;0.60;0.30;;;;;;;18.70;47.72;101483.47;5051645;28;20405;-80
2023/10/01 04:41:16;;;;;;;0.80;0.80;;;;;;;18.64;48.08;101489.66;5033436;28;20540;-80
2023/10/01 04:43:55;;;;;;;0.50;0.50;;;;;;;18.64;48.25;101486.97;5050892;28;20385;-81
2023/10/01 04:46:29;;;;;;;0.70;0.50;;;;;;;18.56;49.10;101478.28;5051295;28;20377;-80
2023/10/01 04:49:39;;;;;;;0.70;0.70;;;;;;;18.70;48.75;101482.63;5051115;28;20392;-80
2023/10/01 04:52:10;;;;;;;0.20;0.20;;;;;;;18.82;48.60;101482.91;5051436;28;20467;-80
2023/10/01 04:54:44;;;;;;;0.40;0.40;;;;;;;18.88;48.16;101487.44;5033576;28;20380;-81
2023/10/01 04:57:25;;;;;;;0.20;0.20;;;;;;;18.91;48.23;101487.03;5049214;28;20919;-80
2023/10/01 04:59:59;;;;;;;0.43;0.43;;;;;;;18.95;48.61;101488.25;5052062;28;20415;-81
2023/10/01 05:02:25;;;;;;;0.73;0.57;;;;;;;19.00;48.69;101487.66;5034342;28;20392;-80
2023/10/01 05:05:09;;;;;;;0.25;0.25;;;;;;;19.10;48.21;101493.41;5033832;28;20392;-81
2023/10/01 05:07:36;;;;;;;0.30;0.30;;;;;;;19.17;48.19;101491.56;5051594;28;20391;-81
2023/10/01 05:10:04;;;;;;;0.20;0.20;;;;;;;19.23;48.40;101493.44;5050739;28;20385;-81
2023/10/01 05:12:31;;;;;;;0.30;0.30;;;;;;;19.23;48.69;101495.28;5051155;28;20503;-80
2023/10/01 05:14:59;;;;;;;0.73;0.73;;;;;;;19.24;48.73;101492.38;5032819;28;20431;-81
2023/10/01 05:17:30;;;;;;;0.47;0.47;;;;;;;19.34;48.70;101501.88;5032584;28;20392;-81
2023/10/01 05:19:58;;;;;;;0.32;0.32;;;;;;;19.41;48.84;101513.44;5050699;28;20396;-79
2023/10/01 05:22:26;;;;;;;0.70;0.50;;;;;;;19.38;49.24;101500.44;5049106;28;20420;-81
2023/10/01 05:24:59;;;;;;;0.20;0.20;;;;;;;19.43;49.66;101516.78;5016296;28;20907;-81
2023/10/01 05:27:28;;;;;;;0.52;0.52;;;;;;;19.53;49.34;101519.84;5049350;28;20807;-81
2023/10/01 05:29:54;;;;;;;0.10;0.10;;;;;;;19.63;48.95;101519.44;5050321;28;20381;-81
2023/10/01 05:32:20;;;;;;;0.27;0.27;;;;;;;19.70;49.12;101522.06;5032320;28;20927;-79
2023/10/01 05:34:47;;;;;;;0.10;0.10;;;;;;;19.86;48.74;101524.34;5050214;28;20456;-80
2023/10/01 05:37:24;;;;;;;0.70;0.70;;;;;;;19.92;48.71;101528.06;5031474;28;20764;-80
2023/10/01 05:39:57;;;;;;;0.20;0.20;;;;;;;19.94;48.98;101524.13;5050517;28;20392;-81
2023/10/01 05:42:33;;;;;;;0.50;0.50;;;;;;;20.05;49.00;101531.53;5049077;28;20393;-80
2023/10/01 05:45:09;;;;;;;0.50;0.50;;;;;;;20.12;49.25;101536.06;5032340;28;20828;-78
2023/10/01 05:48:01;;;;;;;0.20;0.20;;;;;;;20.22;49.17;101541.81;5050335;28;20547;-77
2023/10/01 05:50:29;;;;;;;0.57;0.57;;;;;;;20.29;48.94;101533.69;5049973;28;20409;-79
2023/10/01 05:52:55;;;;;;;0.50;0.50;;;;;;;20.39;49.00;101536.78;5032327;28;20927;-84
2023/10/01 05:55:23;;;;;;;0.70;0.70;;;;;;;20.54;48.62;101542.69;5032564;28;20447;-80
2023/10/01 05:57:50;;;;;;;0.38;0.38;;;;;;;20.65;48.22;101543.88;5050791;28;20430;-80
2023/10/01 06:00:26;;;;;;;0.80;0.40;;;;;;;20.70;48.75;101543.25;5050195;28;20403;-79
2023/10/01 06:03:01;;;;;;;0.35;0.28;;;;;;;20.79;48.54;101541.94;5032922;28;20764;-79
2023/10/01 06:05:33;;;;;;;0.30;0.28;;;;;;;20.95;48.20;101538.72;5032134;28;20397;-81
2023/10/01 06:08:49;;;;;;;0.80;0.60;;;;;;;20.99;48.68;101539.09;5049987;28;20396;-83
2023/10/01 06:11:13;;;;;;;0.50;0.50;;;;;;;21.05;48.43;101535.53;5043286;28;20815;-81
2023/10/01 06:13:49;;;;;;;0.60;0.60;;;;;;;21.10;48.91;101535.69;5033608;28;20476;-84
2023/10/01 06:16:16;;;;;;;0.70;0.70;;;;;;;21.18;48.63;101545.38;5050298;28;20918;-80
2023/10/01 06:18:51;;;;;;;0.30;0.30;;;;;;;21.35;48.41;101556.44;5048507;28;20389;-84
2023/10/01 06:21:23;;;;;;;0.20;0.20;;;;;;;21.44;48.48;101546.19;5015875;28;20419;-80
2023/10/01 06:23:52;;;;;;;0.50;0.50;;;;;;;21.59;48.38;101552.09;5032595;28;20767;-80
2023/10/01 06:26:29;;;;;;;0.50;0.50;;;;;;;21.72;47.89;101561.94;5032529;28;20450;-83
2023/10/01 06:28:57;;;;;;;1.10;0.50;;;;;;;21.74;48.42;101573.31;5049272;28;20454;-81
2023/10/01 06:31:23;;;;;;;0.35;0.35;;;;;;;21.71;48.61;101568.38;5050729;28;20480;-84
2023/10/01 06:33:53;;;;;;;0.87;0.87;;;;;;;21.84;48.31;101568.25;5053787;28;20411;-80
2023/10/01 06:36:23;;;;;;;0.85;0.85;;;;;;;21.96;48.68;101571.81;5050487;28;20909;-83
2023/10/01 06:38:54;;;;;;;0.60;0.60;;;;;;;21.79;49.48;101569.94;5052808;28;20451;-82
2023/10/01 06:41:26;;;;;;;0.32;0.32;;;;;;;21.93;49.18;101572.28;5058822;28;20397;-83
2023/10/01 06:43:56;;;;;;;0.50;0.50;;;;;;;22.14;49.07;101572.88;5059777;28;20389;-85
2023/10/01 06:46:27;;;;;;;0.70;0.70;;;;;;;22.18;49.00;101570.53;5064798;28;20389;-87
2023/10/01 06:48:58;;;;;;;0.90;0.90;;;;;;;22.17;49.33;101567.03;5058169;28;20380;-86
2023/10/01 06:51:26;;;;;;;0.38;0.38;;;;;;;22.38;49.13;101564.91;5073571;28;20418;-87
2023/10/01 06:53:59;;;;;;;2.50;0.80;;;;;;;22.62;49.05;101576.66;5073827;28;20436;-85
2023/10/01 06:56:30;;;;;;;0.25;0.25;;;;;;;22.52;49.12;101569.09;5043701;28;20467;-80
2023/10/01 06:59:14;;;;;;;0.50;0.50;;;;;;;22.51;48.86;101568.28;5051486;28;20392;-82
2023/10/01 07:01:49;;;;;;;0.60;0.60;;;;;;;22.67;48.46;101583.03;5035355;28;20380;-81
2023/10/01 07:04:31;;;;;;;0.70;0.70;;;;;;;22.93;48.09;101578.28;5034124;28;20393;-81
2023/10/01 07:06:57;;;;;;;1.08;0.98;;;;;;;22.86;48.06;101589.19;5019439;28;20404;-81
2023/10/01 07:09:45;;;;;;;0.67;0.67;;;;;;;22.74;48.38;101588.31;5050930;28;20483;-82
2023/10/01 07:12:16;;;;;;;0.63;0.47;;;;;;;22.98;47.93;101597.34;5050656;28;20381;-87
2023/10/01 07:14:45;;;;;;;0.60;0.60;;;;;;;23.09;47.89;101591.16;5018318;28;20392;-80
2023/10/01 07:17:35;;;;;;;1.13;0.67;;;;;;;23.20;47.40;101591.41;5036305;28;20500;-80
2023/10/01 07:20:24;;;;;;;0.68;0.68;;;;;;;23.41;47.08;101595.47;5049196;28;20395;-80
2023/10/01 07:22:51;;;;;;;0.90;0.90;;;;;;;23.16;47.33;101588.34;5032557;28;20409;-84
2023/10/01 07:28:20;;;;;;;0.60;0.55;;;;;;;23.30;47.42;101594.38;4939949;29;20553;-81
2023/10/01 07:30:47;;;;;;;0.50;0.50;;;;;;;23.51;47.14;101595.69;5000902;28;20450;-82
2023/10/01 07:33:20;;;;;;;1.00;0.60;;;;;;;23.71;46.46;101589.91;5033384;28;20958;-83
2023/10/01 07:35:58;;;;;;;0.35;0.35;;;;;;;23.66;46.16;101584.41;5051675;28;20381;-81
2023/10/01 07:38:25;;;;;;;0.43;0.43;;;;;;;23.61;46.22;101595.91;5053056;28;20487;-83
2023/10/01 07:41:07;;;;;;;1.00;0.90;;;;;;;23.50;46.37;101594.03;5051915;28;20380;-80
2023/10/01 07:43:45;;;;;;;1.95;0.90;;;;;;;23.47;46.64;101589.09;5051065;28;20393;-82
2023/10/01 07:46:30;;;;;;;0.60;0.60;;;;;;;23.71;46.08;101583.66;5052254;28;20739;-83
2023/10/01 07:49:00;;;;;;;0.50;0.50;;;;;;;23.80;45.66;101599.34;5034297;28;20732;-81
2023/10/01 07:51:38;;;;;;;0.30;0.30;;;;;;;23.98;45.53;101589.44;5052229;28;20389;-82
2023/10/01 07:54:12;;;;;;;0.70;0.70;;;;;;;24.20;44.99;101581.47;5052378;28;20447;-81
2023/10/01 07:56:50;;;;;;;0.40;0.40;;;;;;;24.25;45.04;101587.00;5035227;28;20393;-82
2023/10/01 07:59:28;;;;;;;4.78;1.17;;;;;;;24.08;45.15;101586.94;5051267;28;20886;-83
2023/10/01 08:02:09;;;;;;;0.55;0.55;;;;;;;24.08;44.75;101596.97;5052390;28;20478;-82
2023/10/01 08:07:18;;;;;;;0.50;0.47;;;;;;;24.23;44.56;101592.66;5052016;28;20504;-82
2023/10/01 08:09:51;;;;;;;1.02;0.88;;;;;;;24.00;45.06;101577.31;5050427;28;20483;-82
2023/10/01 08:15:15;;;;;;;0.63;0.63;;;;;;;24.64;44.09;101587.25;5051987;28;20454;-82
2023/10/01 08:17:43;;;;;;;1.35;0.90;;;;;;;24.69;43.78;101595.50;5052040;28;20403;-82
2023/10/01 08:20:31;;;;;;;0.63;0.63;;;;;;;24.94;43.31;101602.44;5033894;28;20384;-81
2023/10/01 08:23:12;;;;;;;0.30;0.30;;;;;;;24.82;43.40;101597.06;5048650;28;20479;-81
2023/10/01 08:25:51;;;;;;;0.50;0.50;;;;;;;24.82;43.02;101590.84;5053119;28;20381;-81
2023/10/01 08:30:49;;;;;;;0.90;0.80;;;;;;;24.70;43.32;101599.00;5051991;28;20388;-82
2023/10/01 08:33:26;;;;;;;0.43;0.43;;;;;;;24.60;42.91;101600.47;5033776;28;20779;-82
2023/10/01 08:36:01;;;;;;;0.50;0.50;;;;;;;24.57;43.46;101610.97;5033748;28;20392;-82
2023/10/01 08:38:38;;;;;;;0.43;0.43;;;;;;;24.35;43.76;101608.91;5033621;28;20416;-81
2023/10/01 08:41:07;;;;;;;0.80;0.75;;;;;;;24.36;43.66;101610.56;5051886;28;20410;-82
2023/10/01 08:43:36;;;;;;;2.40;0.50;;;;;;;24.60;43.58;101611.31;5033466;28;20514;-82
2023/10/01 08:46:17;;;;;;;0.80;0.73;;;;;;;24.41;43.54;101609.81;5033692;28;20391;-82
2023/10/01 08:48:48;;;;;;;0.57;0.57;;;;;;;24.51;43.51;101610.03;5020328;28;20759;-82
2023/10/01 08:51:16;;;;;;;0.57;0.57;;;;;;;24.50;43.51;101613.78;5052385;28;20831;-82
2023/10/01 08:53:42;;;;;;;0.52;0.52;;;;;;;24.75;42.94;101609.97;5052428;28;20405;-83
2023/10/01 08:56:13;;;;;;;0.88;0.75;;;;;;;24.48;43.14;101607.78;5051837;28;20879;-83
2023/10/01 08:58:49;;;;;;;0.90;0.90;;;;;;;24.42;43.61;101603.34;5050729;28;20767;-83
2023/10/01 09:01:20;;;;;;;0.30;0.30;;;;;;;24.74;42.94;101602.88;5050294;28;20392;-82
2023/10/01 09:03:51;;;;;;;1.60;0.98;;;;;;;24.96;42.48;101611.16;5051084;28;20403;-83
2023/10/01 09:06:30;;;;;;;0.30;0.30;;;;;;;25.29;41.82;101602.22;5034651;28;20392;-83
2023/10/01 09:08:59;;;;;;;0.60;0.60;;;;;;;25.29;41.10;101606.84;5033430;28;20717;-82
2023/10/01 09:11:35;;;;;;;0.45;0.45;;;;;;;25.06;41.02;101610.50;5049503;28;20396;-82
2023/10/01 09:14:42;;;;;;;0.77;0.60;;;;;;;24.75;41.76;101607.25;5050506;28;20417;-83
2023/10/01 09:17:26;;;;;;;0.40;0.40;;;;;;;25.03;41.39;101605.56;5049704;28;20469;-84
2023/10/01 09:20:07;;;;;;;1.00;0.65;;;;;;;25.26;41.15;101600.00;5050722;28;20464;-85
2023/10/01 09:22:45;;;;;;;0.50;0.40;;;;;;;25.16;41.55;101603.34;5045979;28;20423;-82
2023/10/01 09:25:25;;;;;;;0.70;0.70;;;;;;;25.14;41.38;101604.69;5050449;28;20373;-83
2023/10/01 09:28:02;;;;;;;0.30;0.30;;;;;;;25.04;41.08;101604.50;5052365;28;20423;-83
2023/10/01 09:30:34;;;;;;;0.30;0.30;;;;;;;25.15;41.12;101598.97;5049276;28;20464;-81
2023/10/01 09:33:14;;;;;;;0.45;0.45;;;;;;;25.00;40.93;101615.81;5050645;28;20416;-81
2023/10/01 09:36:02;;;;;;;0.60;0.60;;;;;;;25.15;40.77;101611.72;5032476;28;20385;-82
2023/10/01 09:39:03;;;;;;;0.55;0.55;;;;;;;25.41;40.23;101602.16;5049292;28;20451;-83
2023/10/01 09:41:40;;;;;;;0.60;0.60;;;;;;;25.49;40.07;101596.28;5032187;28;20376;-82
2023/10/01 09:44:24;;;;;;;0.30;0.30;;;;;;;25.71;39.83;101599.06;5048275;28;20397;-81
2023/10/01 09:47:07;;;;;;;2.50;0.70;;;;;;;25.43;39.93;101594.59;5015815;28;20476;-81
2023/10/01 09:49:42;;;;;;;1.00;0.95;;;;;;;25.56;39.70;101598.84;5034605;28;21042;-82
2023/10/01 09:52:09;;;;;;;0.50;0.40;;;;;;;25.53;39.19;101605.59;5032562;28;20388;-82
2023/10/01 09:54:54;;;;;;;0.30;0.30;;;;;;;25.60;39.17;101599.97;5032274;28;20385;-83
2023/10/01 09:57:22;;;;;;;1.00;1.00;;;;;;;25.71;39.10;101611.81;5051112;28;20384;-83
2023/10/01 10:00:17;;;;;;;0.77;0.77;;;;;;;25.70;39.25;101593.88;5032107;28;20401;-82
2023/10/01 10:02:54;;;;;;;0.75;0.75;;;;;;;25.97;39.03;101594.00;5034716;28;20449;-82
2023/10/01 10:05:26;;;;;;;0.30;0.30;;;;;;;26.15;38.98;101590.16;5033297;28;20388;-83
2023/10/01 10:08:13;;;;;;;0.82;0.82;;;;;;;26.12;38.45;101591.47;5050252;28;20435;-82
2023/10/01 10:10:48;;;;;;;0.68;0.68;;;;;;;25.66;38.82;101601.72;5031783;28;20447;-81
2023/10/01 10:13:57;;;;;;;0.70;0.70;;;;;;;25.77;38.95;101580.94;5033280;28;20416;-82
2023/10/01 10:16:55;;;;;;;1.30;0.60;;;;;;;25.81;38.65;101584.00;5049892;28;20438;-82
2023/10/01 10:19:22;;;;;;;0.65;0.65;;;;;;;25.82;38.57;101585.63;5049861;28;20442;-82
2023/10/01 10:24:29;;;;;;;0.70;0.70;;;;;;;25.63;38.84;101583.19;5054338;28;20491;-83
2023/10/01 10:27:15;;;;;;;0.30;0.30;;;;;;;25.80;38.75;101579.63;5054966;28;20388;-82
2023/10/01 10:29:46;;;;;;;0.77;0.43;;;;;;;25.98;38.21;101581.25;5054596;28;20381;-83
2023/10/01 10:32:24;;;;;;;0.63;0.63;;;;;;;26.11;38.03;101568.09;5036158;28;20392;-82
2023/10/01 10:35:06;;;;;;;0.33;0.33;;;;;;;26.28;38.29;101570.75;5052775;28;20385;-82
2023/10/01 10:37:38;;;;;;;0.70;0.60;;;;;;;26.22;38.00;101579.09;5054169;28;20744;-84
2023/10/01 10:40:27;;;;;;;0.90;0.68;;;;;;;25.79;38.68;101564.41;5053655;28;21181;-82
2023/10/01 10:43:02;;;;;;;1.95;0.90;;;;;;;25.99;38.74;101561.16;5053715;28;20847;-82
2023/10/01 10:45:42;;;;;;;0.82;0.82;;;;;;;26.15;38.55;101556.75;5054360;28;20860;-82
2023/10/01 10:48:10;;;;;;;0.70;0.70;;;;;;;26.26;38.24;101558.50;5053463;28;20914;-83
2023/10/01 10:50:58;;;;;;;0.87;0.87;;;;;;;26.41;38.27;101563.25;5019484;28;20392;-83
2023/10/01 10:53:37;;;;;;;0.40;0.40;;;;;;;26.44;37.69;101560.84;5035994;28;20415;-82
2023/10/01 10:56:13;;;;;;;0.40;0.40;;;;;;;26.29;37.78;101560.72;5053868;28;20380;-82
2023/10/01 10:58:53;;;;;;;0.50;0.50;;;;;;;25.99;37.68;101561.16;5053281;28;20388;-82
2023/10/01 11:01:23;;;;;;;0.40;0.40;;;;;;;26.19;37.47;101549.72;5053391;28;20385;-83
2023/10/01 11:03:51;;;;;;;1.60;1.10;;;;;;;26.19;37.33;101553.25;5035378;28;20759;-83
2023/10/01 11:06:19;;;;;;;0.30;0.30;;;;;;;26.60;37.28;101552.88;5054399;28;20383;-82
2023/10/01 11:08:52;;;;;;;0.47;0.47;;;;;;;26.58;36.58;101561.28;5036824;28;20480;-82
2023/10/01 11:11:28;;;;;;;0.45;0.45;;;;;;;26.57;36.82;101548.75;5052527;28;20395;-83
2023/10/01 11:14:00;;;;;;;0.40;0.40;;;;;;;26.77;36.38;101552.78;5052945;28;20745;-83
2023/10/01 11:16:34;;;;;;;0.60;0.60;;;;;;;26.46;36.85;101547.00;5018669;28;20397;-82
2023/10/01 11:19:15;;;;;;;0.57;0.47;;;;;;;26.59;37.50;101545.78;5051778;28;20385;-82
2023/10/01 11:21:55;;;;;;;0.90;0.90;;;;;;;26.74;36.98;101554.13;5017902;28;20416;-82
2023/10/01 11:24:24;;;;;;;0.30;0.30;;;;;;;26.61;36.75;101558.06;5052709;28;20384;-82
2023/10/01 11:27:19;;;;;;;0.20;0.20;;;;;;;26.74;36.92;101558.72;5052546;28;20386;-82
2023/10/01 11:30:16;;;;;;;1.30;0.80;;;;;;;26.55;36.58;101555.53;5052704;28;20401;-82
2023/10/01 11:35:36;;;;;;;0.40;0.40;;;;;;;26.50;37.02;101540.78;5051695;28;20442;-82
2023/10/01 11:38:11;;;;;;;1.45;0.55;;;;;;;26.75;36.44;101550.31;5052377;28;20412;-82
2023/10/01 11:43:27;;;;;;;0.50;0.50;;;;;;;26.78;36.96;101543.53;5052795;28;21050;-83
2023/10/01 11:46:25;;;;;;;1.90;0.80;;;;;;;26.32;38.20;101549.31;5028734;28;20867;-83
2023/10/01 11:48:58;;;;;;;0.20;0.20;;;;;;;26.58;37.84;101544.97;5052788;28;20954;-83
2023/10/01 11:54:43;;;;;;;1.80;0.65;;;;;;;26.57;37.09;101529.72;5052510;28;20412;-83
2023/10/01 12:00:52;;;;;;;0.40;0.40;;;;;;;26.67;37.00;101518.97;5036501;28;20468;-82
2023/10/01 12:03:10;;;;;;;0.83;0.83;;;;;;;26.65;37.07;101514.84;5051645;28;20438;-83
2023/10/01 12:05:41;;;;;;;0.20;0.20;;;;;;;26.66;36.49;101511.88;5052298;28;20384;-83
2023/10/01 12:08:47;;;;;;;0.30;0.30;;;;;;;26.73;36.23;101511.66;5036677;28;20443;-82
2023/10/01 12:11:27;;;;;;;0.77;0.77;;;;;;;26.40;36.81;101504.53;5051414;28;20755;-82
2023/10/01 12:14:08;;;;;;;0.38;0.28;;;;;;;26.36;37.07;101490.63;5051624;28;20404;-83
2023/10/01 12:16:54;;;;;;;0.28;0.28;;;;;;;26.47;36.57;101494.25;5050406;28;20483;-83
2023/10/01 12:19:22;;;;;;;0.50;0.50;;;;;;;26.07;36.77;101500.94;5051961;28;20447;-82
2023/10/01 12:22:05;;;;;;;0.40;0.40;;;;;;;25.91;36.91;101505.31;5052119;28;20381;-84
2023/10/01 12:24:40;;;;;;;0.35;0.35;;;;;;;26.22;36.65;101492.97;4990156;28;20424;-83
2023/10/01 12:27:11;;;;;;;0.40;0.40;;;;;;;26.35;36.56;101489.00;4974931;28;20440;-83
2023/10/01 12:29:55;;;;;;;0.30;0.30;;;;;;;26.24;36.80;101485.34;4976492;28;21009;-82
2023/10/01 12:32:22;;;;;;;0.40;0.40;;;;;;;26.36;37.08;101493.34;4990350;28;20397;-82
2023/10/01 12:34:57;;;;;;;0.63;0.47;;;;;;;26.36;36.59;101497.97;4990114;28;20390;-81
2023/10/01 12:37:37;;;;;;;0.60;0.60;;;;;;;26.48;36.47;101485.03;4990292;28;20959;-82